createdAt,value
2018-02-18T00:00:54.063Z,0.00
2018-02-18T00:01:54.323Z,0.00
2018-02-18T00:02:53.965Z,0.00
2018-02-18T00:03:53.919Z,0.00
2018-02-18T00:04:53.864Z,0.00
2018-02-18T00:05:53.825Z,0.00
2018-02-18T00:06:53.767Z,0.00
2018-02-18T00:07:53.716Z,0.00
2018-02-18T00:08:53.967Z,0.00
2018-02-18T00:09:53.817Z,0.00
2018-02-18T00:10:53.571Z,0.00
2018-02-18T00:11:53.516Z,0.00
2018-02-18T00:12:53.475Z,0.00
2018-02-18T00:13:53.426Z,0.00
2018-02-18T00:14:53.374Z,0.00
2018-02-18T00:15:53.671Z,0.00
2018-02-18T00:16:53.270Z,0.00
2018-02-18T00:17:53.220Z,0.00
2018-02-18T00:18:53.169Z,0.00
2018-02-18T00:19:53.123Z,0.00
2018-02-18T00:20:53.070Z,0.00
2018-02-18T00:21:53.273Z,0.00
2018-02-18T00:22:53.273Z,0.00
2018-02-18T00:23:52.920Z,0.00
2018-02-18T00:24:52.873Z,0.00
2018-02-18T00:25:52.827Z,0.00
2018-02-18T00:26:52.771Z,0.00
2018-02-18T00:27:52.730Z,0.00
2018-02-18T00:28:52.674Z,0.00
2018-02-18T00:29:52.927Z,0.00
2018-02-18T00:30:52.573Z,0.00
2018-02-18T00:31:52.527Z,0.00
2018-02-18T00:32:52.473Z,0.00
2018-02-18T00:33:52.425Z,0.00
2018-02-18T00:34:52.376Z,0.00
2018-02-18T00:35:52.325Z,0.00
2018-02-18T00:36:52.576Z,0.00
2018-02-18T00:37:52.226Z,0.00
2018-02-18T00:38:52.191Z,0.00
2018-02-18T00:39:52.126Z,0.00
2018-02-18T00:40:52.089Z,0.00
2018-02-18T00:41:52.028Z,0.00
2018-02-18T00:42:52.278Z,0.00
2018-02-18T00:43:51.928Z,0.00
2018-02-18T00:44:51.880Z,0.00
2018-02-18T00:45:51.831Z,0.00
2018-02-18T00:46:51.778Z,0.00
2018-02-18T00:47:51.735Z,0.00
2018-02-18T00:48:52.132Z,0.00
2018-02-18T00:49:51.630Z,0.00
2018-02-18T00:50:51.582Z,0.00
2018-02-18T00:51:51.580Z,0.00
2018-02-18T00:52:51.479Z,0.00
2018-02-18T00:53:51.431Z,0.00
2018-02-18T00:54:51.681Z,0.00
2018-02-18T00:55:51.331Z,0.00
2018-02-18T00:56:51.281Z,0.00
2018-02-18T00:57:51.234Z,0.00
2018-02-18T00:58:51.184Z,0.00
2018-02-18T00:59:51.181Z,0.00
2018-02-18T01:00:51.383Z,0.00
2018-02-18T01:01:51.033Z,0.00
2018-02-18T01:02:50.984Z,0.00
2018-02-18T01:03:50.935Z,0.00
2018-02-18T01:04:50.884Z,0.00
2018-02-18T01:05:50.883Z,0.00
2018-02-18T01:06:51.084Z,0.00
2018-02-18T01:07:50.734Z,0.00
2018-02-18T01:08:50.691Z,0.00
2018-02-18T01:09:50.636Z,0.00
2018-02-18T01:10:50.584Z,0.00
2018-02-18T01:11:50.584Z,0.00
2018-02-18T01:12:50.482Z,0.00
2018-02-18T01:13:50.732Z,0.00
2018-02-18T01:14:50.383Z,0.00
2018-02-18T01:15:50.334Z,0.00
2018-02-18T01:16:50.284Z,0.00
2018-02-18T01:17:50.234Z,0.00
2018-02-18T01:18:50.184Z,0.00
2018-02-18T01:19:50.134Z,0.00
2018-02-18T01:20:50.383Z,0.00
2018-02-18T01:21:50.037Z,0.00
2018-02-18T01:22:49.984Z,0.00
2018-02-18T01:23:49.933Z,0.00
2018-02-18T01:24:49.883Z,0.00
2018-02-18T01:25:49.835Z,0.00
2018-02-18T01:26:49.783Z,0.00
2018-02-18T01:27:50.037Z,0.00
2018-02-18T01:28:49.683Z,0.00
2018-02-18T01:29:49.638Z,0.00
2018-02-18T01:30:49.584Z,0.00
2018-02-18T01:31:49.536Z,0.00
2018-02-18T01:32:49.536Z,0.00
2018-02-18T01:33:49.439Z,0.00
2018-02-18T01:34:49.684Z,0.00
2018-02-18T01:35:49.336Z,0.00
2018-02-18T01:36:49.287Z,0.00
2018-02-18T01:37:49.234Z,0.00
2018-02-18T01:38:49.234Z,0.00
2018-02-18T01:39:49.139Z,0.00
2018-02-18T01:40:49.085Z,0.00
2018-02-18T01:41:49.340Z,0.00
2018-02-18T01:42:48.985Z,0.00
2018-02-18T01:43:48.938Z,0.00
2018-02-18T01:44:48.885Z,0.00
2018-02-18T01:45:48.841Z,0.00
2018-02-18T01:46:48.785Z,0.00
2018-02-18T01:47:48.734Z,0.00
2018-02-18T01:48:48.987Z,0.00
2018-02-18T01:49:48.636Z,0.00
2018-02-18T01:50:48.587Z,0.00
2018-02-18T01:51:48.535Z,0.00
2018-02-18T01:52:48.484Z,0.00
2018-02-18T01:53:48.435Z,0.00
2018-02-18T01:54:48.687Z,0.00
2018-02-18T01:55:48.337Z,0.00
2018-02-18T01:56:48.287Z,0.00
2018-02-18T01:57:48.236Z,0.00
2018-02-18T01:58:48.185Z,0.00
2018-02-18T01:59:48.135Z,0.00
2018-02-18T02:00:48.437Z,0.00
2018-02-18T02:01:48.035Z,0.00
2018-02-18T02:02:47.985Z,0.00
2018-02-18T02:03:47.936Z,0.00
2018-02-18T02:04:47.885Z,0.00
2018-02-18T02:05:47.836Z,0.00
2018-02-18T02:06:48.199Z,0.00
2018-02-18T02:07:47.734Z,0.00
2018-02-18T02:08:47.691Z,0.00
2018-02-18T02:09:47.652Z,0.00
2018-02-18T02:10:47.583Z,0.00
2018-02-18T02:11:47.541Z,0.00
2018-02-18T02:12:47.783Z,0.00
2018-02-18T02:13:47.434Z,0.00
2018-02-18T02:14:47.385Z,0.00
2018-02-18T02:15:47.339Z,0.00
2018-02-18T02:16:47.284Z,0.00
2018-02-18T02:17:47.233Z,0.00
2018-02-18T02:18:47.484Z,0.00
2018-02-18T02:19:47.354Z,0.00
2018-02-18T02:20:47.083Z,0.00
2018-02-18T02:21:47.035Z,0.00
2018-02-18T02:22:46.988Z,0.00
2018-02-18T02:23:46.934Z,0.00
2018-02-18T02:24:46.882Z,0.00
2018-02-18T02:25:47.134Z,0.00
2018-02-18T02:26:46.783Z,0.00
2018-02-18T02:27:46.735Z,0.00
2018-02-18T02:28:46.682Z,0.00
2018-02-18T02:29:46.633Z,0.00
2018-02-18T02:30:46.583Z,0.00
2018-02-18T02:31:46.535Z,0.00
2018-02-18T02:32:46.792Z,0.00
2018-02-18T02:33:46.433Z,0.00
2018-02-18T02:34:46.587Z,0.00
2018-02-18T02:35:46.333Z,0.00
2018-02-18T02:36:46.283Z,0.00
2018-02-18T02:37:46.232Z,0.00
2018-02-18T02:38:46.182Z,0.00
2018-02-18T02:39:46.433Z,0.00
2018-02-18T02:40:46.083Z,0.00
2018-02-18T02:41:46.035Z,0.00
2018-02-18T02:42:45.981Z,0.00
2018-02-18T02:43:45.934Z,0.00
2018-02-18T02:44:45.887Z,0.00
2018-02-18T02:45:45.832Z,0.00
2018-02-18T02:46:46.082Z,0.00
2018-02-18T02:47:45.732Z,0.00
2018-02-18T02:48:45.681Z,0.00
2018-02-18T02:49:45.632Z,0.00
2018-02-18T02:50:45.580Z,0.00
2018-02-18T02:51:45.631Z,0.00
2018-02-18T02:52:45.483Z,0.00
2018-02-18T02:53:45.729Z,0.00
2018-02-18T02:54:45.381Z,0.00
2018-02-18T02:55:45.335Z,0.00
2018-02-18T02:56:45.281Z,0.00
2018-02-18T02:57:45.229Z,0.00
2018-02-18T02:58:45.180Z,0.00
2018-02-18T02:59:45.444Z,0.00
2018-02-18T03:00:45.080Z,0.00
2018-02-18T03:01:45.030Z,0.00
2018-02-18T03:02:44.985Z,0.00
2018-02-18T03:03:44.937Z,0.00
2018-02-18T03:04:44.890Z,0.00
2018-02-18T03:05:45.132Z,0.00
2018-02-18T03:06:44.777Z,0.00
2018-02-18T03:07:44.734Z,0.00
2018-02-18T03:08:44.678Z,0.00
2018-02-18T03:09:44.632Z,0.00
2018-02-18T03:10:44.578Z,0.00
2018-02-18T03:11:44.828Z,0.00
2018-02-18T03:12:44.477Z,0.00
2018-02-18T03:13:44.435Z,0.00
2018-02-18T03:14:44.376Z,0.00
2018-02-18T03:15:44.326Z,0.00
2018-02-18T03:16:44.277Z,0.00
2018-02-18T03:17:44.527Z,0.00
2018-02-18T03:18:44.185Z,0.00
2018-02-18T03:19:44.124Z,0.00
2018-02-18T03:20:44.080Z,0.00
2018-02-18T03:21:44.040Z,0.00
2018-02-18T03:22:43.975Z,0.00
2018-02-18T03:23:44.225Z,0.00
2018-02-18T03:24:43.875Z,0.00
2018-02-18T03:25:43.824Z,0.00
2018-02-18T03:26:43.774Z,0.00
2018-02-18T03:27:43.725Z,0.00
2018-02-18T03:28:43.673Z,0.00
2018-02-18T03:29:43.627Z,0.00
2018-02-18T03:30:43.875Z,0.00
2018-02-18T03:31:43.522Z,0.00
2018-02-18T03:32:43.474Z,0.00
2018-02-18T03:33:43.427Z,0.00
2018-02-18T03:34:43.371Z,0.00
2018-02-18T03:35:43.320Z,0.00
2018-02-18T03:36:43.273Z,0.00
2018-02-18T03:37:43.571Z,0.00
2018-02-18T03:38:43.168Z,0.00
2018-02-18T03:39:43.126Z,0.00
2018-02-18T03:40:43.075Z,0.00
2018-02-18T03:41:43.021Z,0.00
2018-02-18T03:42:42.972Z,0.00
2018-02-18T03:43:42.972Z,0.00
2018-02-18T03:44:43.169Z,0.00
2018-02-18T03:45:42.828Z,0.00
2018-02-18T03:46:42.774Z,0.00
2018-02-18T03:47:42.719Z,0.00
2018-02-18T03:48:42.669Z,0.00
2018-02-18T03:49:42.675Z,0.00
2018-02-18T03:50:42.569Z,0.00
2018-02-18T03:51:42.817Z,0.00
2018-02-18T03:52:42.468Z,0.00
2018-02-18T03:53:42.417Z,0.00
2018-02-18T03:54:42.368Z,0.00
2018-02-18T03:55:42.320Z,0.00
2018-02-18T03:56:42.268Z,0.00
2018-02-18T03:57:42.217Z,0.00
2018-02-18T03:58:42.471Z,0.00
2018-02-18T03:59:42.117Z,0.00
2018-02-18T04:00:42.118Z,0.00
2018-02-18T04:01:42.016Z,0.00
2018-02-18T04:02:41.965Z,0.00
2018-02-18T04:03:41.918Z,0.00
2018-02-18T04:04:41.867Z,0.00
2018-02-18T04:05:42.117Z,0.00
2018-02-18T04:06:41.817Z,0.00
2018-02-18T04:07:41.717Z,0.00
2018-02-18T04:08:41.664Z,0.00
2018-02-18T04:09:41.617Z,0.00
2018-02-18T04:10:41.568Z,0.00
2018-02-18T04:11:41.815Z,0.00
2018-02-18T04:12:41.515Z,0.00
2018-02-18T04:13:41.413Z,0.00
2018-02-18T04:14:41.368Z,0.00
2018-02-18T04:15:41.316Z,0.00
2018-02-18T04:16:41.265Z,0.00
2018-02-18T04:17:41.515Z,0.00
2018-02-18T04:18:41.170Z,0.00
2018-02-18T04:19:41.117Z,0.00
2018-02-18T04:20:41.063Z,0.00
2018-02-18T04:21:41.023Z,0.00
2018-02-18T04:22:40.962Z,0.00
2018-02-18T04:23:41.215Z,0.00
2018-02-18T04:24:40.864Z,0.00
2018-02-18T04:25:40.813Z,0.00
2018-02-18T04:26:40.763Z,0.00
2018-02-18T04:27:40.713Z,0.00
2018-02-18T04:28:40.664Z,0.00
2018-02-18T04:29:40.914Z,0.00
2018-02-18T04:30:40.561Z,0.00
2018-02-18T04:31:40.511Z,0.00
2018-02-18T04:32:40.462Z,0.00
2018-02-18T04:33:40.410Z,0.00
2018-02-18T04:34:40.363Z,0.00
2018-02-18T04:35:40.615Z,0.00
2018-02-18T04:36:40.261Z,0.00
2018-02-18T04:37:40.215Z,0.00
2018-02-18T04:38:40.166Z,0.00
2018-02-18T04:39:40.110Z,0.00
2018-02-18T04:40:40.059Z,0.00
2018-02-18T04:41:40.011Z,0.00
2018-02-18T04:42:40.267Z,0.00
2018-02-18T04:43:39.909Z,0.00
2018-02-18T04:44:39.861Z,0.00
2018-02-18T04:45:39.814Z,0.00
2018-02-18T04:46:39.760Z,0.00
2018-02-18T04:47:39.711Z,0.00
2018-02-18T04:48:39.662Z,0.00
2018-02-18T04:49:39.911Z,0.00
2018-02-18T04:50:39.559Z,0.00
2018-02-18T04:51:39.509Z,0.00
2018-02-18T04:52:39.464Z,0.00
2018-02-18T04:53:39.412Z,0.00
2018-02-18T04:54:39.359Z,0.00
2018-02-18T04:55:39.308Z,0.00
2018-02-18T04:56:39.561Z,0.00
2018-02-18T04:57:39.207Z,0.00
2018-02-18T04:58:39.158Z,0.00
2018-02-18T04:59:39.114Z,0.00
2018-02-18T05:00:39.058Z,0.00
2018-02-18T05:01:39.012Z,0.00
2018-02-18T05:02:38.958Z,0.00
2018-02-18T05:03:39.357Z,0.00
2018-02-18T05:04:38.857Z,0.00
2018-02-18T05:05:38.806Z,0.00
2018-02-18T05:06:38.759Z,0.00
2018-02-18T05:07:38.705Z,0.00
2018-02-18T05:08:38.663Z,0.00
2018-02-18T05:09:38.655Z,0.00
2018-02-18T05:10:38.856Z,0.00
2018-02-18T05:11:38.506Z,0.00
2018-02-18T05:12:38.459Z,0.00
2018-02-18T05:13:38.404Z,0.00
2018-02-18T05:14:38.356Z,0.00
2018-02-18T05:15:38.310Z,0.00
2018-02-18T05:16:38.560Z,0.00
2018-02-18T05:17:38.204Z,0.00
2018-02-18T05:18:38.154Z,0.00
2018-02-18T05:19:38.105Z,0.00
2018-02-18T05:20:38.057Z,0.00
2018-02-18T05:21:38.006Z,0.00
2018-02-18T05:22:38.254Z,0.00
2018-02-18T05:23:37.906Z,0.00
2018-02-18T05:24:37.854Z,0.00
2018-02-18T05:25:37.802Z,0.00
2018-02-18T05:26:37.756Z,0.00
2018-02-18T05:27:37.704Z,0.00
2018-02-18T05:28:37.955Z,0.00
2018-02-18T05:29:37.605Z,0.00
2018-02-18T05:30:37.552Z,0.00
2018-02-18T05:31:37.508Z,0.00
2018-02-18T05:32:37.457Z,0.00
2018-02-18T05:33:37.407Z,0.00
2018-02-18T05:34:37.651Z,0.00
2018-02-18T05:35:37.302Z,0.00
2018-02-18T05:36:37.253Z,0.00
2018-02-18T05:37:37.201Z,0.00
2018-02-18T05:38:37.150Z,0.00
2018-02-18T05:39:37.100Z,0.00
2018-02-18T05:40:37.349Z,0.00
2018-02-18T05:41:37.001Z,0.00
2018-02-18T05:42:36.949Z,0.00
2018-02-18T05:43:36.910Z,0.00
2018-02-18T05:44:36.854Z,0.00
2018-02-18T05:45:36.802Z,0.00
2018-02-18T05:46:36.798Z,0.00
2018-02-18T05:47:37.004Z,0.00
2018-02-18T05:48:36.651Z,0.00
2018-02-18T05:49:36.606Z,0.00
2018-02-18T05:50:36.550Z,0.00
2018-02-18T05:51:36.498Z,0.00
2018-02-18T05:52:36.498Z,0.00
2018-02-18T05:53:36.398Z,0.00
2018-02-18T05:54:36.657Z,0.00
2018-02-18T05:55:36.299Z,0.00
2018-02-18T05:56:36.247Z,0.00
2018-02-18T05:57:36.197Z,0.00
2018-02-18T05:58:36.246Z,0.00
2018-02-18T05:59:36.096Z,0.00
2018-02-18T06:00:36.047Z,0.00
2018-02-18T06:01:36.296Z,0.00
2018-02-18T06:02:35.946Z,0.00
2018-02-18T06:03:35.895Z,0.00
2018-02-18T06:04:36.048Z,0.00
2018-02-18T06:05:35.795Z,0.00
2018-02-18T06:06:35.749Z,0.00
2018-02-18T06:07:35.698Z,0.00
2018-02-18T06:08:35.944Z,0.00
2018-02-18T06:09:35.594Z,0.00
2018-02-18T06:10:35.543Z,0.00
2018-02-18T06:11:35.495Z,0.00
2018-02-18T06:12:35.441Z,0.00
2018-02-18T06:13:35.394Z,0.00
2018-02-18T06:14:35.355Z,0.00
2018-02-18T06:15:35.593Z,0.00
2018-02-18T06:16:35.244Z,0.00
2018-02-18T06:17:35.190Z,0.00
2018-02-18T06:18:35.143Z,0.00
2018-02-18T06:19:35.096Z,0.00
2018-02-18T06:20:35.039Z,0.00
2018-02-18T06:21:34.990Z,0.00
2018-02-18T06:22:35.243Z,5.63
2018-02-18T06:23:34.891Z,5.63
2018-02-18T06:24:34.838Z,5.63
2018-02-18T06:25:34.792Z,5.63
2018-02-18T06:26:34.739Z,5.63
2018-02-18T06:27:34.691Z,5.63
2018-02-18T06:28:34.938Z,11.25
2018-02-18T06:29:34.589Z,11.25
2018-02-18T06:30:34.538Z,11.25
2018-02-18T06:31:34.489Z,11.25
2018-02-18T06:32:34.442Z,16.88
2018-02-18T06:33:34.386Z,16.88
2018-02-18T06:34:34.638Z,16.88
2018-02-18T06:35:34.286Z,22.50
2018-02-18T06:36:34.233Z,22.50
2018-02-18T06:37:34.183Z,22.50
2018-02-18T06:38:34.135Z,28.13
2018-02-18T06:39:34.085Z,28.13
2018-02-18T06:40:34.434Z,33.75
2018-02-18T06:41:33.982Z,33.75
2018-02-18T06:42:33.934Z,39.38
2018-02-18T06:43:33.882Z,39.38
2018-02-18T06:44:33.838Z,45.00
2018-02-18T06:45:33.787Z,45.00
2018-02-18T06:46:34.032Z,50.63
2018-02-18T06:47:33.680Z,56.25
2018-02-18T06:48:33.671Z,56.25
2018-02-18T06:49:33.578Z,61.88
2018-02-18T06:50:33.529Z,67.50
2018-02-18T06:51:33.481Z,67.50
2018-02-18T06:52:33.731Z,73.13
2018-02-18T06:53:33.380Z,78.75
2018-02-18T06:54:33.331Z,84.38
2018-02-18T06:55:33.282Z,84.38
2018-02-18T06:56:33.233Z,90.00
2018-02-18T06:57:33.382Z,95.63
2018-02-18T06:58:33.130Z,101.25
2018-02-18T06:59:33.378Z,101.25
2018-02-18T07:00:33.650Z,106.88
2018-02-18T07:02:33.239Z,118.13
2018-02-18T07:03:34.417Z,123.75
2018-02-18T07:04:33.000Z,123.75
2018-02-18T07:05:32.928Z,129.38
2018-02-18T07:06:35.871Z,129.38
2018-02-18T07:07:36.360Z,135.00
2018-02-18T07:08:36.223Z,140.63
2018-02-18T07:09:35.997Z,146.25
2018-02-18T07:10:33.347Z,157.50
2018-02-18T07:11:32.473Z,157.50
2018-02-18T07:12:32.421Z,163.13
2018-02-18T07:13:32.673Z,168.75
2018-02-18T07:14:32.322Z,174.38
2018-02-18T07:15:32.294Z,180.00
2018-02-18T07:16:32.226Z,185.63
2018-02-18T07:17:32.174Z,191.25
2018-02-18T07:18:32.123Z,191.25
2018-02-18T07:19:32.073Z,196.88
2018-02-18T07:20:32.322Z,202.50
2018-02-18T07:21:31.971Z,208.13
2018-02-18T07:22:31.922Z,213.75
2018-02-18T07:23:31.873Z,219.38
2018-02-18T07:24:31.829Z,230.63
2018-02-18T07:25:31.836Z,236.25
2018-02-18T07:26:31.727Z,241.88
2018-02-18T07:27:31.976Z,247.50
2018-02-18T07:28:31.625Z,253.13
2018-02-18T07:29:31.576Z,258.75
2018-02-18T07:30:31.549Z,264.38
2018-02-18T07:31:31.476Z,270.00
2018-02-18T07:32:31.428Z,478.13
2018-02-18T07:33:31.678Z,776.25
2018-02-18T07:34:31.329Z,781.88
2018-02-18T07:35:31.280Z,753.75
2018-02-18T07:36:31.227Z,686.25
2018-02-18T07:37:31.179Z,708.75
2018-02-18T07:38:31.130Z,832.50
2018-02-18T07:39:31.382Z,950.63
2018-02-18T07:40:31.034Z,1051.88
2018-02-18T07:41:30.985Z,1074.38
2018-02-18T07:42:30.937Z,1102.50
2018-02-18T07:43:30.939Z,1130.63
2018-02-18T07:44:30.848Z,1153.13
2018-02-18T07:45:31.095Z,1181.25
2018-02-18T07:46:30.750Z,1198.13
2018-02-18T07:47:30.702Z,1226.25
2018-02-18T07:48:30.663Z,1243.13
2018-02-18T07:49:30.658Z,1271.25
2018-02-18T07:50:30.564Z,1299.38
2018-02-18T07:51:30.817Z,1321.88
2018-02-18T07:52:30.501Z,1338.75
2018-02-18T07:53:30.439Z,1361.25
2018-02-18T07:54:30.382Z,1338.75
2018-02-18T07:55:30.392Z,1406.25
2018-02-18T07:56:30.292Z,1473.75
2018-02-18T07:57:30.549Z,1490.63
2018-02-18T07:58:30.207Z,1513.13
2018-02-18T07:59:30.165Z,1535.63
2018-02-18T08:00:30.117Z,1569.38
2018-02-18T08:01:30.073Z,1580.63
2018-02-18T08:02:30.032Z,1620.00
2018-02-18T08:03:30.290Z,1631.25
2018-02-18T08:04:30.061Z,1648.13
2018-02-18T08:05:29.960Z,1653.75
2018-02-18T08:06:29.912Z,1687.50
2018-02-18T08:07:29.889Z,1704.38
2018-02-18T08:08:29.832Z,1743.75
2018-02-18T08:09:29.734Z,1771.88
2018-02-18T08:10:29.998Z,1794.38
2018-02-18T08:11:29.678Z,1811.25
2018-02-18T08:12:29.604Z,1833.75
2018-02-18T08:13:29.564Z,1856.25
2018-02-18T08:14:29.562Z,1878.75
2018-02-18T08:15:29.604Z,1895.63
2018-02-18T08:16:29.559Z,1918.13
2018-02-18T08:17:29.398Z,1935.00
2018-02-18T08:19:29.318Z,2002.50
2018-02-18T08:20:29.277Z,1996.88
2018-02-18T08:21:29.290Z,1321.88
2018-02-18T08:22:29.197Z,2064.38
2018-02-18T08:23:29.457Z,2086.88
2018-02-18T08:24:29.115Z,2103.75
2018-02-18T08:25:29.076Z,2120.63
2018-02-18T08:26:29.035Z,2148.75
2018-02-18T08:27:28.997Z,2171.25
2018-02-18T08:28:28.957Z,2182.50
2018-02-18T08:29:28.916Z,2216.25
2018-02-18T08:30:29.179Z,2221.88
2018-02-18T08:31:28.892Z,2255.63
2018-02-18T08:32:28.803Z,2261.25
2018-02-18T08:33:28.763Z,2278.13
2018-02-18T08:34:28.722Z,2289.38
2018-02-18T08:35:28.684Z,2311.88
2018-02-18T08:36:28.643Z,2317.50
2018-02-18T08:37:29.007Z,2351.25
2018-02-18T08:38:28.569Z,2362.50
2018-02-18T08:39:28.530Z,2390.63
2018-02-18T08:40:28.490Z,2413.13
2018-02-18T08:41:28.463Z,2424.38
2018-02-18T08:42:28.414Z,2463.75
2018-02-18T08:43:28.476Z,2491.88
2018-02-18T08:44:28.646Z,2491.88
2018-02-18T08:45:28.302Z,2390.63
2018-02-18T08:46:28.265Z,2430.00
2018-02-18T08:47:28.228Z,2452.50
2018-02-18T08:48:28.239Z,2491.88
2018-02-18T08:49:28.160Z,2278.13
2018-02-18T08:50:28.419Z,1816.88
2018-02-18T08:51:28.085Z,1850.63
2018-02-18T08:52:28.043Z,2092.50
2018-02-18T08:53:28.012Z,2255.63
2018-02-18T08:54:27.971Z,2340.00
2018-02-18T08:55:27.933Z,2458.13
2018-02-18T08:56:28.196Z,2598.75
2018-02-18T08:57:27.866Z,2576.25
2018-02-18T08:58:27.829Z,2655.00
2018-02-18T08:59:27.789Z,2683.13
2018-02-18T09:00:27.748Z,2671.88
2018-02-18T09:01:27.714Z,2683.13
2018-02-18T09:02:27.978Z,2683.13
2018-02-18T09:03:27.641Z,2705.63
2018-02-18T09:04:27.807Z,2733.75
2018-02-18T09:05:27.570Z,2750.63
2018-02-18T09:06:27.533Z,2773.13
2018-02-18T09:07:27.496Z,2790.00
2018-02-18T09:08:27.766Z,2818.13
2018-02-18T09:09:27.424Z,2823.75
2018-02-18T09:10:27.441Z,2857.50
2018-02-18T09:11:27.354Z,2874.38
2018-02-18T09:12:27.322Z,2885.63
2018-02-18T09:13:27.283Z,2902.50
2018-02-18T09:14:27.552Z,2930.63
2018-02-18T09:15:27.265Z,2925.00
2018-02-18T09:16:27.264Z,2908.13
2018-02-18T09:17:27.152Z,2902.50
2018-02-18T09:18:27.246Z,2868.75
2018-02-18T09:19:27.074Z,2840.63
2018-02-18T09:20:27.038Z,2868.75
2018-02-18T09:21:27.307Z,2863.13
2018-02-18T09:22:27.023Z,2688.75
2018-02-18T09:23:26.931Z,2818.13
2018-02-18T09:24:26.895Z,2868.75
2018-02-18T09:25:26.862Z,2626.88
2018-02-18T09:26:27.012Z,2643.75
2018-02-18T09:27:26.791Z,2902.50
2018-02-18T09:28:27.144Z,3020.63
2018-02-18T09:29:26.722Z,3060.00
2018-02-18T09:30:26.685Z,3093.75
2018-02-18T09:31:26.651Z,3121.88
2018-02-18T09:32:26.615Z,3144.38
2018-02-18T09:33:26.586Z,3138.75
2018-02-18T09:34:26.549Z,3178.13
2018-02-18T09:35:26.812Z,3211.88
2018-02-18T09:36:26.480Z,3206.25
2018-02-18T09:37:26.443Z,3217.50
2018-02-18T09:38:26.410Z,3234.38
2018-02-18T09:39:26.374Z,3279.38
2018-02-18T09:40:26.342Z,3285.00
2018-02-18T09:41:26.303Z,3307.50
2018-02-18T09:42:26.570Z,3341.25
2018-02-18T09:43:26.237Z,3363.75
2018-02-18T09:44:26.205Z,3363.75
2018-02-18T09:45:26.167Z,3391.88
2018-02-18T09:46:26.134Z,3386.25
2018-02-18T09:47:26.100Z,3391.88
2018-02-18T09:48:26.069Z,3403.13
2018-02-18T09:49:26.333Z,3448.13
2018-02-18T09:50:26.005Z,3408.75
2018-02-18T09:51:25.968Z,2778.75
2018-02-18T09:52:25.944Z,1946.25
2018-02-18T09:53:25.903Z,2767.50
2018-02-18T09:54:25.880Z,3296.25
2018-02-18T09:55:25.836Z,3470.63
2018-02-18T09:56:26.108Z,3397.50
2018-02-18T09:57:25.778Z,3043.13
2018-02-18T09:58:25.745Z,2846.25
2018-02-18T09:59:25.700Z,3093.75
2018-02-18T10:00:25.666Z,2919.38
2018-02-18T10:01:25.633Z,2885.63
2018-02-18T10:02:25.949Z,2896.88
2018-02-18T10:03:25.634Z,3211.88
2018-02-18T10:04:25.541Z,3324.38
2018-02-18T10:05:25.500Z,3341.25
2018-02-18T10:06:25.468Z,3363.75
2018-02-18T10:07:25.437Z,3436.88
2018-02-18T10:08:25.800Z,3459.38
2018-02-18T10:09:25.367Z,3504.38
2018-02-18T10:10:25.337Z,3487.50
2018-02-18T10:11:25.299Z,3493.13
2018-02-18T10:12:25.277Z,3487.50
2018-02-18T10:13:25.238Z,3476.25
2018-02-18T10:14:25.512Z,3515.63
2018-02-18T10:15:25.171Z,3543.75
2018-02-18T10:16:25.143Z,3555.00
2018-02-18T10:17:25.144Z,3532.50
2018-02-18T10:18:25.074Z,3594.38
2018-02-18T10:19:25.040Z,3616.88
2018-02-18T10:20:25.308Z,3661.88
2018-02-18T10:21:25.006Z,3633.75
2018-02-18T10:22:24.943Z,3622.50
2018-02-18T10:23:24.911Z,3600.00
2018-02-18T10:24:24.881Z,3566.25
2018-02-18T10:25:24.854Z,3290.63
2018-02-18T10:26:25.114Z,3256.88
2018-02-18T10:27:24.779Z,2953.13
2018-02-18T10:28:24.747Z,3346.88
2018-02-18T10:29:24.716Z,3476.25
2018-02-18T10:30:24.689Z,3600.00
2018-02-18T10:31:24.650Z,3605.63
2018-02-18T10:32:24.916Z,3600.00
2018-02-18T10:33:24.587Z,3577.50
2018-02-18T10:34:24.555Z,3566.25
2018-02-18T10:35:24.522Z,3605.63
2018-02-18T10:36:24.487Z,3605.63
2018-02-18T10:37:24.454Z,3650.63
2018-02-18T10:38:24.425Z,3616.88
2018-02-18T10:39:24.691Z,3369.38
2018-02-18T10:40:24.357Z,3397.50
2018-02-18T10:41:24.328Z,3650.63
2018-02-18T10:42:24.293Z,3622.50
2018-02-18T10:43:24.263Z,3695.63
2018-02-18T10:44:24.234Z,3605.63
2018-02-18T10:45:24.199Z,3571.88
2018-02-18T10:46:24.464Z,3645.00
2018-02-18T10:47:24.133Z,3678.75
2018-02-18T10:48:24.103Z,3645.00
2018-02-18T10:49:24.126Z,3673.13
2018-02-18T10:50:24.041Z,3673.13
2018-02-18T10:51:24.010Z,3661.88
2018-02-18T10:52:23.976Z,3740.63
2018-02-18T10:53:24.242Z,3729.38
2018-02-18T10:54:23.911Z,3706.88
2018-02-18T10:55:23.979Z,3690.00
2018-02-18T10:56:23.850Z,3718.13
2018-02-18T10:57:23.816Z,3751.88
2018-02-18T10:58:23.784Z,3740.63
2018-02-18T10:59:23.761Z,3735.00
2018-02-18T11:00:24.021Z,3746.25
2018-02-18T11:01:23.740Z,3757.50
2018-02-18T11:02:23.655Z,3729.38
2018-02-18T11:03:23.622Z,3695.63
2018-02-18T11:04:23.591Z,3706.88
2018-02-18T11:05:23.607Z,3701.25
2018-02-18T11:06:23.527Z,3701.25
2018-02-18T11:07:23.793Z,3723.75
2018-02-18T11:08:23.468Z,3723.75
2018-02-18T11:09:23.427Z,3751.88
2018-02-18T11:10:23.395Z,3723.75
2018-02-18T11:11:23.364Z,3763.13
2018-02-18T11:12:23.377Z,3729.38
2018-02-18T11:13:23.298Z,3723.75
2018-02-18T11:14:23.563Z,3735.00
2018-02-18T11:15:23.229Z,3735.00
2018-02-18T11:16:23.202Z,3740.63
2018-02-18T11:17:23.164Z,3723.75
2018-02-18T11:18:23.335Z,3740.63
2018-02-18T11:19:23.106Z,3780.00
2018-02-18T11:20:23.364Z,3695.63
2018-02-18T11:21:23.038Z,3729.38
2018-02-18T11:22:23.002Z,3723.75
2018-02-18T11:23:23.054Z,3757.50
2018-02-18T11:24:22.986Z,3740.63
2018-02-18T11:25:22.964Z,3645.00
2018-02-18T11:26:23.176Z,3622.50
2018-02-18T11:27:22.843Z,3650.63
2018-02-18T11:28:22.802Z,3470.63
2018-02-18T11:29:22.774Z,3605.63
2018-02-18T11:30:22.746Z,3706.88
2018-02-18T11:31:22.707Z,3695.63
2018-02-18T11:32:22.983Z,3628.13
2018-02-18T11:33:22.643Z,3633.75
2018-02-18T11:34:22.614Z,3560.63
2018-02-18T11:35:22.786Z,3616.88
2018-02-18T11:36:22.545Z,3656.25
2018-02-18T11:37:22.515Z,3600.00
2018-02-18T11:38:22.782Z,3549.38
2018-02-18T11:39:22.451Z,3543.75
2018-02-18T11:40:22.418Z,3549.38
2018-02-18T11:41:22.434Z,3521.25
2018-02-18T11:42:22.359Z,3583.13
2018-02-18T11:43:22.319Z,3633.75
2018-02-18T11:44:22.587Z,3549.38
2018-02-18T11:45:22.254Z,3560.63
2018-02-18T11:46:22.225Z,3526.88
2018-02-18T11:47:22.191Z,3583.13
2018-02-18T11:48:22.157Z,3594.38
2018-02-18T11:49:22.124Z,3577.50
2018-02-18T11:50:22.395Z,3555.00
2018-02-18T11:51:22.065Z,3577.50
2018-02-18T11:52:22.037Z,3577.50
2018-02-18T11:53:21.996Z,3571.88
2018-02-18T11:54:21.963Z,3594.38
2018-02-18T11:55:21.929Z,3594.38
2018-02-18T11:56:21.896Z,3583.13
2018-02-18T11:57:23.168Z,3639.38
2018-02-18T11:58:21.880Z,3543.75
2018-02-18T11:59:21.802Z,2536.88
2018-02-18T12:00:21.786Z,2356.88
2018-02-18T12:01:21.735Z,2536.88
2018-02-18T12:03:21.668Z,2323.13
2018-02-18T12:04:21.939Z,2576.25
2018-02-18T12:05:21.603Z,2711.25
2018-02-18T12:06:21.569Z,2553.75
2018-02-18T12:07:21.599Z,2660.63
2018-02-18T12:08:21.503Z,2503.13
2018-02-18T12:09:21.466Z,2418.75
2018-02-18T12:10:21.428Z,2593.13
2018-02-18T12:11:21.695Z,2840.63
2018-02-18T12:12:21.360Z,2913.75
2018-02-18T12:13:21.329Z,2964.38
2018-02-18T12:14:21.291Z,3093.75
2018-02-18T12:15:21.259Z,3166.88
2018-02-18T12:16:21.223Z,3172.50
2018-02-18T12:17:21.188Z,3189.38
2018-02-18T12:18:21.630Z,3223.13
2018-02-18T12:19:21.372Z,3245.63
2018-02-18T12:20:21.092Z,3256.88
2018-02-18T12:21:21.050Z,3285.00
2018-02-18T12:22:21.013Z,3290.63
2018-02-18T12:23:20.985Z,3251.25
2018-02-18T12:24:20.943Z,3240.00
2018-02-18T12:25:21.216Z,3189.38
2018-02-18T12:26:20.875Z,3234.38
2018-02-18T12:27:20.905Z,3234.38
2018-02-18T12:28:20.806Z,3166.88
2018-02-18T12:29:20.773Z,3178.13
2018-02-18T12:30:20.741Z,3178.13
2018-02-18T12:31:20.717Z,3127.50
2018-02-18T12:32:20.975Z,3065.63
2018-02-18T12:33:20.838Z,3116.25
2018-02-18T12:34:20.604Z,3060.00
2018-02-18T12:35:20.573Z,3138.75
2018-02-18T12:36:20.566Z,3121.88
2018-02-18T12:37:20.505Z,3043.13
2018-02-18T12:38:20.770Z,3031.88
2018-02-18T12:39:20.485Z,2975.63
2018-02-18T12:40:20.403Z,2829.38
2018-02-18T12:41:20.370Z,2660.63
2018-02-18T12:42:20.333Z,2508.75
2018-02-18T12:43:20.300Z,2385.00
2018-02-18T12:44:20.564Z,2413.13
2018-02-18T12:45:20.233Z,2407.50
2018-02-18T12:46:20.246Z,2345.63
2018-02-18T12:47:20.210Z,2176.88